sensor_id;sensor_type;location;lat;lon;timestamp;P1;durP1;ratioP1;P2;durP2;ratioP2
8777;SDS011;4425;50.872;4.712;2023-06-14T00:02:23;6.13;;;5.53;;
8777;SDS011;4425;50.872;4.712;2023-06-14T00:04:50;7.10;;;5.63;;
8777;SDS011;4425;50.872;4.712;2023-06-14T00:07:17;6.40;;;5.80;;
8777;SDS011;4425;50.872;4.712;2023-06-14T00:09:45;6.10;;;5.60;;
8777;SDS011;4425;50.872;4.712;2023-06-14T00:12:11;6.40;;;5.45;;
8777;SDS011;4425;50.872;4.712;2023-06-14T00:14:38;7.45;;;6.07;;
8777;SDS011;4425;50.872;4.712;2023-06-14T00:17:06;5.80;;;5.40;;
8777;SDS011;4425;50.872;4.712;2023-06-14T00:19:35;7.75;;;5.90;;
8777;SDS011;4425;50.872;4.712;2023-06-14T00:22:02;7.47;;;5.75;;
8777;SDS011;4425;50.872;4.712;2023-06-14T00:24:29;6.60;;;6.00;;
8777;SDS011;4425;50.872;4.712;2023-06-14T00:26:56;7.30;;;5.85;;
8777;SDS011;4425;50.872;4.712;2023-06-14T00:29:22;6.82;;;6.22;;
8777;SDS011;4425;50.872;4.712;2023-06-14T00:31:52;9.32;;;6.18;;
8777;SDS011;4425;50.872;4.712;2023-06-14T00:34:20;6.35;;;5.40;;
8777;SDS011;4425;50.872;4.712;2023-06-14T00:36:48;6.70;;;6.05;;
8777;SDS011;4425;50.872;4.712;2023-06-14T00:39:15;7.70;;;5.88;;
8777;SDS011;4425;50.872;4.712;2023-06-14T00:41:42;7.97;;;6.28;;
8777;SDS011;4425;50.872;4.712;2023-06-14T00:44:09;6.60;;;5.95;;
8777;SDS011;4425;50.872;4.712;2023-06-14T00:46:36;6.35;;;5.70;;
8777;SDS011;4425;50.872;4.712;2023-06-14T00:49:02;7.88;;;6.05;;
8777;SDS011;4425;50.872;4.712;2023-06-14T00:51:30;8.82;;;6.65;;
8777;SDS011;4425;50.872;4.712;2023-06-14T00:53:58;6.80;;;6.15;;
8777;SDS011;4425;50.872;4.712;2023-06-14T00:56:25;6.55;;;6.00;;
8777;SDS011;4425;50.872;4.712;2023-06-14T00:58:52;8.15;;;6.10;;
8777;SDS011;4425;50.872;4.712;2023-06-14T01:01:19;7.75;;;6.38;;
8777;SDS011;4425;50.872;4.712;2023-06-14T01:03:49;6.75;;;6.07;;
8777;SDS011;4425;50.872;4.712;2023-06-14T01:06:20;8.85;;;6.25;;
8777;SDS011;4425;50.872;4.712;2023-06-14T01:09:01;9.45;;;5.93;;
8777;SDS011;4425;50.872;4.712;2023-06-14T01:11:38;7.10;;;5.90;;
8777;SDS011;4425;50.872;4.712;2023-06-14T01:14:13;7.03;;;5.95;;
8777;SDS011;4425;50.872;4.712;2023-06-14T01:16:43;7.72;;;6.10;;
8777;SDS011;4425;50.872;4.712;2023-06-14T01:19:11;8.75;;;6.07;;
8777;SDS011;4425;50.872;4.712;2023-06-14T01:21:39;9.23;;;6.32;;
8777;SDS011;4425;50.872;4.712;2023-06-14T01:24:09;9.23;;;6.88;;
8777;SDS011;4425;50.872;4.712;2023-06-14T01:26:37;7.18;;;6.28;;
8777;SDS011;4425;50.872;4.712;2023-06-14T01:29:10;10.45;;;7.32;;
8777;SDS011;4425;50.872;4.712;2023-06-14T01:31:41;8.40;;;7.60;;
8777;SDS011;4425;50.872;4.712;2023-06-14T01:34:08;8.95;;;7.68;;
8777;SDS011;4425;50.872;4.712;2023-06-14T01:36:36;10.00;;;7.45;;
8777;SDS011;4425;50.872;4.712;2023-06-14T01:39:06;7.70;;;6.75;;
8777;SDS011;4425;50.872;4.712;2023-06-14T01:41:35;8.75;;;6.78;;
8777;SDS011;4425;50.872;4.712;2023-06-14T01:44:05;7.82;;;6.53;;
8777;SDS011;4425;50.872;4.712;2023-06-14T01:46:35;8.93;;;6.43;;
8777;SDS011;4425;50.872;4.712;2023-06-14T01:49:13;11.45;;;7.30;;
8777;SDS011;4425;50.872;4.712;2023-06-14T01:51:43;7.40;;;6.70;;
8777;SDS011;4425;50.872;4.712;2023-06-14T01:54:10;8.80;;;7.07;;
8777;SDS011;4425;50.872;4.712;2023-06-14T01:56:38;9.20;;;7.10;;
8777;SDS011;4425;50.872;4.712;2023-06-14T01:59:05;9.07;;;7.63;;
8777;SDS011;4425;50.872;4.712;2023-06-14T02:01:32;8.32;;;7.53;;
8777;SDS011;4425;50.872;4.712;2023-06-14T02:04:01;8.05;;;7.28;;
8777;SDS011;4425;50.872;4.712;2023-06-14T02:06:28;8.18;;;7.38;;
8777;SDS011;4425;50.872;4.712;2023-06-14T02:08:55;8.75;;;7.13;;
8777;SDS011;4425;50.872;4.712;2023-06-14T02:11:22;12.23;;;7.35;;
8777;SDS011;4425;50.872;4.712;2023-06-14T02:13:52;7.72;;;7.05;;
8777;SDS011;4425;50.872;4.712;2023-06-14T02:16:20;7.80;;;7.07;;
8777;SDS011;4425;50.872;4.712;2023-06-14T02:18:47;9.75;;;7.10;;
8777;SDS011;4425;50.872;4.712;2023-06-14T02:21:14;7.75;;;6.95;;
8777;SDS011;4425;50.872;4.712;2023-06-14T02:23:40;9.63;;;7.65;;
8777;SDS011;4425;50.872;4.712;2023-06-14T02:26:07;7.93;;;7.20;;
8777;SDS011;4425;50.872;4.712;2023-06-14T02:28:34;8.82;;;7.20;;
8777;SDS011;4425;50.872;4.712;2023-06-14T02:31:03;8.68;;;7.85;;
8777;SDS011;4425;50.872;4.712;2023-06-14T02:33:30;8.05;;;7.25;;
8777;SDS011;4425;50.872;4.712;2023-06-14T02:35:56;8.88;;;7.70;;
8777;SDS011;4425;50.872;4.712;2023-06-14T02:38:23;9.32;;;8.32;;
8777;SDS011;4425;50.872;4.712;2023-06-14T02:40:50;11.32;;;7.72;;
8777;SDS011;4425;50.872;4.712;2023-06-14T02:43:17;8.90;;;7.55;;
8777;SDS011;4425;50.872;4.712;2023-06-14T02:45:45;8.25;;;7.50;;
8777;SDS011;4425;50.872;4.712;2023-06-14T02:48:13;8.18;;;7.40;;
8777;SDS011;4425;50.872;4.712;2023-06-14T02:50:40;8.40;;;7.70;;
8777;SDS011;4425;50.872;4.712;2023-06-14T02:53:07;8.05;;;7.30;;
8777;SDS011;4425;50.872;4.712;2023-06-14T02:55:34;8.27;;;7.55;;
8777;SDS011;4425;50.872;4.712;2023-06-14T02:58:04;7.95;;;7.22;;
8777;SDS011;4425;50.872;4.712;2023-06-14T03:00:31;11.40;;;7.50;;
8777;SDS011;4425;50.872;4.712;2023-06-14T03:03:00;11.32;;;8.20;;
8777;SDS011;4425;50.872;4.712;2023-06-14T03:05:28;8.43;;;7.68;;
8777;SDS011;4425;50.872;4.712;2023-06-14T03:07:55;8.32;;;7.22;;
8777;SDS011;4425;50.872;4.712;2023-06-14T03:10:22;8.18;;;7.47;;
8777;SDS011;4425;50.872;4.712;2023-06-14T03:12:50;9.05;;;7.47;;
8777;SDS011;4425;50.872;4.712;2023-06-14T03:15:17;8.82;;;8.00;;
8777;SDS011;4425;50.872;4.712;2023-06-14T03:17:44;10.23;;;7.72;;
8777;SDS011;4425;50.872;4.712;2023-06-14T03:20:14;8.43;;;7.57;;
8777;SDS011;4425;50.872;4.712;2023-06-14T03:22:43;11.52;;;7.78;;
8777;SDS011;4425;50.872;4.712;2023-06-14T03:25:12;8.68;;;7.70;;
8777;SDS011;4425;50.872;4.712;2023-06-14T03:27:40;8.07;;;7.38;;
8777;SDS011;4425;50.872;4.712;2023-06-14T03:30:07;8.63;;;7.22;;
8777;SDS011;4425;50.872;4.712;2023-06-14T03:32:35;10.93;;;7.35;;
8777;SDS011;4425;50.872;4.712;2023-06-14T03:35:02;13.75;;;7.60;;
8777;SDS011;4425;50.872;4.712;2023-06-14T03:37:29;15.50;;;8.15;;
8777;SDS011;4425;50.872;4.712;2023-06-14T03:39:57;12.07;;;7.43;;
8777;SDS011;4425;50.872;4.712;2023-06-14T03:42:24;23.80;;;9.32;;
8777;SDS011;4425;50.872;4.712;2023-06-14T03:44:51;8.93;;;7.65;;
8777;SDS011;4425;50.872;4.712;2023-06-14T03:47:18;9.45;;;8.38;;
8777;SDS011;4425;50.872;4.712;2023-06-14T03:49:45;9.40;;;8.43;;
8777;SDS011;4425;50.872;4.712;2023-06-14T03:52:12;8.98;;;8.00;;
8777;SDS011;4425;50.872;4.712;2023-06-14T03:54:39;8.85;;;8.00;;
8777;SDS011;4425;50.872;4.712;2023-06-14T03:57:09;8.73;;;7.55;;
8777;SDS011;4425;50.872;4.712;2023-06-14T03:59:36;10.60;;;7.95;;
8777;SDS011;4425;50.872;4.712;2023-06-14T04:02:03;10.82;;;7.88;;
8777;SDS011;4425;50.872;4.712;2023-06-14T04:04:40;11.88;;;7.72;;
8777;SDS011;4425;50.872;4.712;2023-06-14T04:07:09;8.88;;;8.07;;
8777;SDS011;4425;50.872;4.712;2023-06-14T04:09:36;9.90;;;7.85;;
8777;SDS011;4425;50.872;4.712;2023-06-14T04:12:03;9.95;;;8.30;;
8777;SDS011;4425;50.872;4.712;2023-06-14T04:14:32;8.80;;;7.85;;
8777;SDS011;4425;50.872;4.712;2023-06-14T04:16:59;13.30;;;8.25;;
8777;SDS011;4425;50.872;4.712;2023-06-14T04:19:26;14.82;;;8.77;;
8777;SDS011;4425;50.872;4.712;2023-06-14T04:21:53;12.75;;;8.50;;
8777;SDS011;4425;50.872;4.712;2023-06-14T04:24:20;13.40;;;7.72;;
8777;SDS011;4425;50.872;4.712;2023-06-14T04:26:48;9.93;;;8.20;;
8777;SDS011;4425;50.872;4.712;2023-06-14T04:29:17;10.18;;;8.07;;
8777;SDS011;4425;50.872;4.712;2023-06-14T04:31:46;8.65;;;7.80;;
8777;SDS011;4425;50.872;4.712;2023-06-14T04:34:13;15.68;;;8.32;;
8777;SDS011;4425;50.872;4.712;2023-06-14T04:36:41;11.15;;;8.18;;
8777;SDS011;4425;50.872;4.712;2023-06-14T04:39:14;8.43;;;7.72;;
8777;SDS011;4425;50.872;4.712;2023-06-14T04:41:42;9.35;;;8.40;;
8777;SDS011;4425;50.872;4.712;2023-06-14T04:44:17;11.45;;;8.38;;
8777;SDS011;4425;50.872;4.712;2023-06-14T04:46:46;8.60;;;7.68;;
8777;SDS011;4425;50.872;4.712;2023-06-14T04:49:14;11.30;;;8.20;;
8777;SDS011;4425;50.872;4.712;2023-06-14T04:51:42;16.27;;;8.13;;
8777;SDS011;4425;50.872;4.712;2023-06-14T04:54:09;8.63;;;7.70;;
8777;SDS011;4425;50.872;4.712;2023-06-14T04:56:39;10.65;;;8.00;;
8777;SDS011;4425;50.872;4.712;2023-06-14T04:59:06;9.80;;;7.85;;
8777;SDS011;4425;50.872;4.712;2023-06-14T05:01:33;10.30;;;8.35;;
8777;SDS011;4425;50.872;4.712;2023-06-14T05:04:04;11.07;;;8.18;;
8777;SDS011;4425;50.872;4.712;2023-06-14T05:06:31;11.13;;;8.25;;
8777;SDS011;4425;50.872;4.712;2023-06-14T05:08:58;9.38;;;8.48;;
8777;SDS011;4425;50.872;4.712;2023-06-14T05:11:25;13.30;;;8.65;;
8777;SDS011;4425;50.872;4.712;2023-06-14T05:13:52;9.68;;;8.68;;
8777;SDS011;4425;50.872;4.712;2023-06-14T05:16:19;20.67;;;9.85;;
8777;SDS011;4425;50.872;4.712;2023-06-14T05:18:50;22.30;;;9.73;;
8777;SDS011;4425;50.872;4.712;2023-06-14T05:21:18;11.80;;;8.43;;
8777;SDS011;4425;50.872;4.712;2023-06-14T05:23:45;10.25;;;8.63;;
8777;SDS011;4425;50.872;4.712;2023-06-14T05:26:13;15.77;;;8.45;;
8777;SDS011;4425;50.872;4.712;2023-06-14T05:28:40;15.27;;;8.68;;
8777;SDS011;4425;50.872;4.712;2023-06-14T05:31:07;53.67;;;11.77;;
8777;SDS011;4425;50.872;4.712;2023-06-14T05:33:36;17.75;;;9.18;;
8777;SDS011;4425;50.872;4.712;2023-06-14T05:36:03;12.43;;;9.23;;
8777;SDS011;4425;50.872;4.712;2023-06-14T05:38:31;11.70;;;8.60;;
8777;SDS011;4425;50.872;4.712;2023-06-14T05:40:58;10.70;;;9.38;;
8777;SDS011;4425;50.872;4.712;2023-06-14T05:43:25;12.20;;;8.98;;
8777;SDS011;4425;50.872;4.712;2023-06-14T05:45:52;11.93;;;8.75;;
8777;SDS011;4425;50.872;4.712;2023-06-14T05:48:19;14.38;;;9.00;;
8777;SDS011;4425;50.872;4.712;2023-06-14T05:50:46;14.65;;;9.52;;
8777;SDS011;4425;50.872;4.712;2023-06-14T05:53:13;11.98;;;8.82;;
8777;SDS011;4425;50.872;4.712;2023-06-14T05:55:41;12.70;;;9.10;;
8777;SDS011;4425;50.872;4.712;2023-06-14T05:58:08;15.18;;;8.98;;
8777;SDS011;4425;50.872;4.712;2023-06-14T06:00:35;13.05;;;9.07;;
8777;SDS011;4425;50.872;4.712;2023-06-14T06:03:02;9.18;;;8.05;;
8777;SDS011;4425;50.872;4.712;2023-06-14T06:05:30;9.20;;;8.00;;
8777;SDS011;4425;50.872;4.712;2023-06-14T06:07:56;13.35;;;8.52;;
8777;SDS011;4425;50.872;4.712;2023-06-14T06:10:23;11.75;;;8.73;;
8777;SDS011;4425;50.872;4.712;2023-06-14T06:12:52;11.68;;;8.07;;
8777;SDS011;4425;50.872;4.712;2023-06-14T06:15:19;14.18;;;7.85;;
8777;SDS011;4425;50.872;4.712;2023-06-14T06:17:46;10.40;;;8.18;;
8777;SDS011;4425;50.872;4.712;2023-06-14T06:20:13;9.15;;;8.15;;
8777;SDS011;4425;50.872;4.712;2023-06-14T06:22:40;16.98;;;7.63;;
8777;SDS011;4425;50.872;4.712;2023-06-14T06:25:12;15.30;;;7.93;;
8777;SDS011;4425;50.872;4.712;2023-06-14T06:28:03;12.07;;;8.05;;
8777;SDS011;4425;50.872;4.712;2023-06-14T06:30:35;19.95;;;8.77;;
8777;SDS011;4425;50.872;4.712;2023-06-14T06:33:02;10.98;;;7.53;;
8777;SDS011;4425;50.872;4.712;2023-06-14T06:35:43;8.10;;;7.30;;
8777;SDS011;4425;50.872;4.712;2023-06-14T06:38:10;15.60;;;7.78;;
8777;SDS011;4425;50.872;4.712;2023-06-14T06:40:37;15.27;;;8.15;;
8777;SDS011;4425;50.872;4.712;2023-06-14T06:43:06;13.82;;;7.82;;
8777;SDS011;4425;50.872;4.712;2023-06-14T06:45:33;14.50;;;7.93;;
8777;SDS011;4425;50.872;4.712;2023-06-14T06:48:11;9.18;;;7.32;;
8777;SDS011;4425;50.872;4.712;2023-06-14T06:50:38;10.95;;;7.97;;
8777;SDS011;4425;50.872;4.712;2023-06-14T06:53:05;20.70;;;8.45;;
8777;SDS011;4425;50.872;4.712;2023-06-14T06:55:32;12.93;;;7.22;;
8777;SDS011;4425;50.872;4.712;2023-06-14T06:57:59;11.73;;;7.57;;
8777;SDS011;4425;50.872;4.712;2023-06-14T07:00:27;9.63;;;8.05;;
8777;SDS011;4425;50.872;4.712;2023-06-14T07:02:55;9.70;;;7.70;;
8777;SDS011;4425;50.872;4.712;2023-06-14T07:05:29;11.68;;;7.78;;
8777;SDS011;4425;50.872;4.712;2023-06-14T07:07:56;8.02;;;7.28;;
8777;SDS011;4425;50.872;4.712;2023-06-14T07:10:23;14.20;;;7.38;;
8777;SDS011;4425;50.872;4.712;2023-06-14T07:12:50;8.82;;;6.85;;
8777;SDS011;4425;50.872;4.712;2023-06-14T07:15:18;10.75;;;6.65;;
8777;SDS011;4425;50.872;4.712;2023-06-14T07:17:47;11.20;;;7.15;;
8777;SDS011;4425;50.872;4.712;2023-06-14T07:20:14;8.50;;;7.30;;
8777;SDS011;4425;50.872;4.712;2023-06-14T07:22:41;22.40;;;7.45;;
8777;SDS011;4425;50.872;4.712;2023-06-14T07:25:09;13.23;;;7.20;;
8777;SDS011;4425;50.872;4.712;2023-06-14T07:27:39;10.32;;;6.47;;
8777;SDS011;4425;50.872;4.712;2023-06-14T07:30:06;9.25;;;7.03;;
8777;SDS011;4425;50.872;4.712;2023-06-14T07:32:34;12.00;;;6.72;;
8777;SDS011;4425;50.872;4.712;2023-06-14T07:35:04;8.05;;;6.57;;
8777;SDS011;4425;50.872;4.712;2023-06-14T07:37:31;8.80;;;6.18;;
8777;SDS011;4425;50.872;4.712;2023-06-14T07:39:58;9.20;;;6.65;;
8777;SDS011;4425;50.872;4.712;2023-06-14T07:42:25;12.95;;;7.28;;
8777;SDS011;4425;50.872;4.712;2023-06-14T07:44:52;8.18;;;6.65;;
8777;SDS011;4425;50.872;4.712;2023-06-14T07:47:19;11.65;;;6.72;;
8777;SDS011;4425;50.872;4.712;2023-06-14T07:49:45;8.32;;;6.85;;
8777;SDS011;4425;50.872;4.712;2023-06-14T07:52:14;15.07;;;7.50;;
8777;SDS011;4425;50.872;4.712;2023-06-14T07:54:41;8.07;;;7.00;;
8777;SDS011;4425;50.872;4.712;2023-06-14T07:57:08;14.18;;;6.90;;
8777;SDS011;4425;50.872;4.712;2023-06-14T07:59:34;12.90;;;7.43;;
8777;SDS011;4425;50.872;4.712;2023-06-14T08:02:01;8.75;;;7.32;;
8777;SDS011;4425;50.872;4.712;2023-06-14T08:04:28;8.40;;;7.63;;
8777;SDS011;4425;50.872;4.712;2023-06-14T08:06:56;43.15;;;9.95;;
8777;SDS011;4425;50.872;4.712;2023-06-14T08:09:24;7.30;;;6.65;;
8777;SDS011;4425;50.872;4.712;2023-06-14T08:11:52;25.83;;;8.13;;
8777;SDS011;4425;50.872;4.712;2023-06-14T08:14:19;16.10;;;7.25;;
8777;SDS011;4425;50.872;4.712;2023-06-14T08:16:46;10.73;;;7.03;;
8777;SDS011;4425;50.872;4.712;2023-06-14T08:19:13;7.75;;;6.90;;
8777;SDS011;4425;50.872;4.712;2023-06-14T08:21:41;10.55;;;6.28;;
8777;SDS011;4425;50.872;4.712;2023-06-14T08:24:08;11.30;;;6.70;;
8777;SDS011;4425;50.872;4.712;2023-06-14T08:26:38;9.23;;;7.03;;
8777;SDS011;4425;50.872;4.712;2023-06-14T08:29:06;9.18;;;6.97;;
8777;SDS011;4425;50.872;4.712;2023-06-14T08:31:33;10.30;;;7.38;;
8777;SDS011;4425;50.872;4.712;2023-06-14T08:34:00;8.00;;;6.55;;
8777;SDS011;4425;50.872;4.712;2023-06-14T08:36:26;11.55;;;6.93;;
8777;SDS011;4425;50.872;4.712;2023-06-14T08:38:53;12.60;;;7.47;;
8777;SDS011;4425;50.872;4.712;2023-06-14T08:41:21;12.32;;;6.72;;
8777;SDS011;4425;50.872;4.712;2023-06-14T08:43:51;9.23;;;6.55;;
8777;SDS011;4425;50.872;4.712;2023-06-14T08:46:18;12.13;;;7.55;;
8777;SDS011;4425;50.872;4.712;2023-06-14T08:48:47;7.63;;;6.85;;
8777;SDS011;4425;50.872;4.712;2023-06-14T08:51:16;10.68;;;7.45;;
8777;SDS011;4425;50.872;4.712;2023-06-14T08:53:47;11.23;;;6.63;;
8777;SDS011;4425;50.872;4.712;2023-06-14T08:56:23;10.38;;;6.43;;
8777;SDS011;4425;50.872;4.712;2023-06-14T08:58:54;8.98;;;7.13;;
8777;SDS011;4425;50.872;4.712;2023-06-14T09:01:22;17.17;;;7.40;;
8777;SDS011;4425;50.872;4.712;2023-06-14T09:03:49;14.05;;;6.35;;
8777;SDS011;4425;50.872;4.712;2023-06-14T09:06:16;14.63;;;7.00;;
8777;SDS011;4425;50.872;4.712;2023-06-14T09:08:44;10.82;;;6.72;;
8777;SDS011;4425;50.872;4.712;2023-06-14T09:11:12;7.32;;;6.13;;
8777;SDS011;4425;50.872;4.712;2023-06-14T09:13:40;10.75;;;6.57;;
8777;SDS011;4425;50.872;4.712;2023-06-14T09:16:23;10.90;;;6.50;;
8777;SDS011;4425;50.872;4.712;2023-06-14T09:18:51;72.07;;;10.98;;
8777;SDS011;4425;50.872;4.712;2023-06-14T09:21:18;9.60;;;6.65;;
8777;SDS011;4425;50.872;4.712;2023-06-14T09:23:46;9.13;;;7.05;;
8777;SDS011;4425;50.872;4.712;2023-06-14T09:26:14;9.40;;;6.47;;
8777;SDS011;4425;50.872;4.712;2023-06-14T09:28:43;9.80;;;6.05;;
8777;SDS011;4425;50.872;4.712;2023-06-14T09:31:10;8.38;;;6.40;;
8777;SDS011;4425;50.872;4.712;2023-06-14T09:33:39;6.57;;;5.90;;
8777;SDS011;4425;50.872;4.712;2023-06-14T09:36:13;31.42;;;6.78;;
8777;SDS011;4425;50.872;4.712;2023-06-14T09:38:53;9.82;;;5.63;;
8777;SDS011;4425;50.872;4.712;2023-06-14T09:41:20;7.05;;;6.35;;
8777;SDS011;4425;50.872;4.712;2023-06-14T09:43:57;12.38;;;6.18;;
8777;SDS011;4425;50.872;4.712;2023-06-14T09:46:26;9.02;;;5.82;;
8777;SDS011;4425;50.872;4.712;2023-06-14T09:48:59;12.13;;;5.90;;
8777;SDS011;4425;50.872;4.712;2023-06-14T09:51:27;9.35;;;5.40;;
8777;SDS011;4425;50.872;4.712;2023-06-14T09:53:58;8.20;;;5.72;;
8777;SDS011;4425;50.872;4.712;2023-06-14T09:56:26;5.68;;;5.18;;
8777;SDS011;4425;50.872;4.712;2023-06-14T09:58:57;8.80;;;5.32;;
8777;SDS011;4425;50.872;4.712;2023-06-14T10:01:26;5.85;;;5.20;;
8777;SDS011;4425;50.872;4.712;2023-06-14T10:03:58;9.48;;;5.10;;
8777;SDS011;4425;50.872;4.712;2023-06-14T10:06:28;16.30;;;5.78;;
8777;SDS011;4425;50.872;4.712;2023-06-14T10:08:56;13.63;;;5.05;;
8777;SDS011;4425;50.872;4.712;2023-06-14T10:11:25;5.60;;;5.10;;
8777;SDS011;4425;50.872;4.712;2023-06-14T10:13:53;7.28;;;4.78;;
8777;SDS011;4425;50.872;4.712;2023-06-14T10:16:22;6.47;;;5.40;;
8777;SDS011;4425;50.872;4.712;2023-06-14T10:19:01;9.00;;;4.60;;
8777;SDS011;4425;50.872;4.712;2023-06-14T10:21:36;8.75;;;4.68;;
8777;SDS011;4425;50.872;4.712;2023-06-14T10:24:10;8.15;;;4.35;;
8777;SDS011;4425;50.872;4.712;2023-06-14T10:26:49;8.95;;;5.00;;
8777;SDS011;4425;50.872;4.712;2023-06-14T10:29:17;8.75;;;5.25;;
8777;SDS011;4425;50.872;4.712;2023-06-14T10:31:45;9.13;;;4.72;;
8777;SDS011;4425;50.872;4.712;2023-06-14T10:34:20;8.80;;;5.22;;
8777;SDS011;4425;50.872;4.712;2023-06-14T10:36:59;14.00;;;5.40;;
8777;SDS011;4425;50.872;4.712;2023-06-14T10:39:29;7.10;;;5.07;;
8777;SDS011;4425;50.872;4.712;2023-06-14T10:41:57;5.72;;;5.18;;
8777;SDS011;4425;50.872;4.712;2023-06-14T10:44:34;7.97;;;4.93;;
8777;SDS011;4425;50.872;4.712;2023-06-14T10:47:09;4.88;;;4.40;;
8777;SDS011;4425;50.872;4.712;2023-06-14T10:49:40;7.00;;;4.88;;
8777;SDS011;4425;50.872;4.712;2023-06-14T10:52:09;7.00;;;4.88;;
8777;SDS011;4425;50.872;4.712;2023-06-14T10:55:04;11.98;;;5.10;;
8777;SDS011;4425;50.872;4.712;2023-06-14T10:57:34;10.27;;;4.70;;
8777;SDS011;4425;50.872;4.712;2023-06-14T11:00:02;6.97;;;4.70;;
8777;SDS011;4425;50.872;4.712;2023-06-14T11:02:59;5.00;;;4.38;;
8777;SDS011;4425;50.872;4.712;2023-06-14T11:05:54;4.93;;;4.40;;
8777;SDS011;4425;50.872;4.712;2023-06-14T11:11:41;5.93;;;4.40;;
8777;SDS011;4425;50.872;4.712;2023-06-14T11:14:10;5.82;;;4.55;;
8777;SDS011;4425;50.872;4.712;2023-06-14T11:16:40;4.60;;;4.30;;
8777;SDS011;4425;50.872;4.712;2023-06-14T11:19:07;7.57;;;4.28;;
8777;SDS011;4425;50.872;4.712;2023-06-14T11:21:39;13.00;;;4.30;;
8777;SDS011;4425;50.872;4.712;2023-06-14T11:24:09;9.60;;;4.13;;
8777;SDS011;4425;50.872;4.712;2023-06-14T11:26:38;7.80;;;4.35;;
8777;SDS011;4425;50.872;4.712;2023-06-14T11:29:05;18.38;;;4.13;;
8777;SDS011;4425;50.872;4.712;2023-06-14T11:31:32;7.03;;;4.47;;
8777;SDS011;4425;50.872;4.712;2023-06-14T11:33:59;4.95;;;3.92;;
8777;SDS011;4425;50.872;4.712;2023-06-14T11:36:27;4.80;;;4.18;;
8777;SDS011;4425;50.872;4.712;2023-06-14T11:38:59;7.82;;;4.30;;
8777;SDS011;4425;50.872;4.712;2023-06-14T11:41:31;8.27;;;4.55;;
8777;SDS011;4425;50.872;4.712;2023-06-14T11:44:00;9.75;;;5.03;;
8777;SDS011;4425;50.872;4.712;2023-06-14T11:46:34;11.43;;;4.60;;
8777;SDS011;4425;50.872;4.712;2023-06-14T11:49:01;6.10;;;4.40;;
8777;SDS011;4425;50.872;4.712;2023-06-14T11:51:29;4.30;;;3.90;;
8777;SDS011;4425;50.872;4.712;2023-06-14T11:53:58;4.30;;;4.10;;
8777;SDS011;4425;50.872;4.712;2023-06-14T11:56:25;7.53;;;4.20;;
8777;SDS011;4425;50.872;4.712;2023-06-14T11:58:52;4.68;;;4.10;;
8777;SDS011;4425;50.872;4.712;2023-06-14T12:01:21;5.20;;;3.90;;
8777;SDS011;4425;50.872;4.712;2023-06-14T12:03:49;6.97;;;4.15;;
8777;SDS011;4425;50.872;4.712;2023-06-14T12:06:16;6.80;;;4.32;;
8777;SDS011;4425;50.872;4.712;2023-06-14T12:08:54;4.30;;;4.00;;
8777;SDS011;4425;50.872;4.712;2023-06-14T12:11:23;4.07;;;3.78;;
8777;SDS011;4425;50.872;4.712;2023-06-14T12:13:54;7.20;;;3.70;;
8777;SDS011;4425;50.872;4.712;2023-06-14T12:16:29;5.22;;;3.78;;
8777;SDS011;4425;50.872;4.712;2023-06-14T12:18:59;3.90;;;3.60;;
8777;SDS011;4425;50.872;4.712;2023-06-14T12:21:27;7.50;;;3.85;;
8777;SDS011;4425;50.872;4.712;2023-06-14T12:23:55;6.22;;;3.80;;
8777;SDS011;4425;50.872;4.712;2023-06-14T12:26:22;5.85;;;3.90;;
8777;SDS011;4425;50.872;4.712;2023-06-14T12:28:53;7.28;;;3.85;;
8777;SDS011;4425;50.872;4.712;2023-06-14T12:31:20;4.28;;;3.30;;
8777;SDS011;4425;50.872;4.712;2023-06-14T12:33:47;3.90;;;3.60;;
8777;SDS011;4425;50.872;4.712;2023-06-14T12:36:15;3.85;;;3.40;;
8777;SDS011;4425;50.872;4.712;2023-06-14T12:38:42;4.35;;;3.40;;
8777;SDS011;4425;50.872;4.712;2023-06-14T12:41:10;3.97;;;3.63;;
8777;SDS011;4425;50.872;4.712;2023-06-14T12:43:40;3.95;;;3.63;;
8777;SDS011;4425;50.872;4.712;2023-06-14T12:46:07;5.75;;;3.63;;
8777;SDS011;4425;50.872;4.712;2023-06-14T12:48:34;3.83;;;3.38;;
8777;SDS011;4425;50.872;4.712;2023-06-14T12:51:01;6.60;;;3.78;;
8777;SDS011;4425;50.872;4.712;2023-06-14T12:53:28;4.82;;;3.13;;
8777;SDS011;4425;50.872;4.712;2023-06-14T12:55:55;6.68;;;3.70;;
8777;SDS011;4425;50.872;4.712;2023-06-14T12:58:22;7.55;;;3.35;;
8777;SDS011;4425;50.872;4.712;2023-06-14T13:00:50;4.78;;;3.35;;
8777;SDS011;4425;50.872;4.712;2023-06-14T13:03:17;8.25;;;2.97;;
8777;SDS011;4425;50.872;4.712;2023-06-14T13:05:44;2.92;;;2.83;;
8777;SDS011;4425;50.872;4.712;2023-06-14T13:08:11;3.70;;;2.90;;
8777;SDS011;4425;50.872;4.712;2023-06-14T13:10:38;5.90;;;2.97;;
8777;SDS011;4425;50.872;4.712;2023-06-14T13:13:05;7.97;;;3.30;;
8777;SDS011;4425;50.872;4.712;2023-06-14T13:15:33;2.80;;;2.60;;
8777;SDS011;4425;50.872;4.712;2023-06-14T13:18:04;2.65;;;2.42;;
8777;SDS011;4425;50.872;4.712;2023-06-14T13:20:33;6.13;;;2.83;;
8777;SDS011;4425;50.872;4.712;2023-06-14T13:23:00;2.45;;;2.25;;
8777;SDS011;4425;50.872;4.712;2023-06-14T13:25:29;4.88;;;2.70;;
8777;SDS011;4425;50.872;4.712;2023-06-14T13:27:56;6.53;;;2.40;;
8777;SDS011;4425;50.872;4.712;2023-06-14T13:30:22;3.03;;;2.70;;
8777;SDS011;4425;50.872;4.712;2023-06-14T13:32:49;3.60;;;2.40;;
8777;SDS011;4425;50.872;4.712;2023-06-14T13:35:18;3.25;;;2.65;;
8777;SDS011;4425;50.872;4.712;2023-06-14T13:37:45;3.30;;;2.40;;
8777;SDS011;4425;50.872;4.712;2023-06-14T13:40:12;2.47;;;2.28;;
8777;SDS011;4425;50.872;4.712;2023-06-14T13:42:39;4.13;;;2.20;;
8777;SDS011;4425;50.872;4.712;2023-06-14T13:45:07;3.58;;;2.30;;
8777;SDS011;4425;50.872;4.712;2023-06-14T13:47:35;2.10;;;2.00;;
8777;SDS011;4425;50.872;4.712;2023-06-14T13:50:02;6.65;;;2.50;;
8777;SDS011;4425;50.872;4.712;2023-06-14T13:52:30;5.72;;;2.33;;
8777;SDS011;4425;50.872;4.712;2023-06-14T13:54:57;5.15;;;2.28;;
8777;SDS011;4425;50.872;4.712;2023-06-14T13:57:25;2.47;;;2.30;;
8777;SDS011;4425;50.872;4.712;2023-06-14T13:59:52;4.75;;;2.50;;
8777;SDS011;4425;50.872;4.712;2023-06-14T14:02:20;6.22;;;2.47;;
8777;SDS011;4425;50.872;4.712;2023-06-14T14:04:47;5.47;;;2.40;;
8777;SDS011;4425;50.872;4.712;2023-06-14T14:07:18;6.72;;;2.20;;
8777;SDS011;4425;50.872;4.712;2023-06-14T14:09:47;4.25;;;2.20;;
8777;SDS011;4425;50.872;4.712;2023-06-14T14:12:13;3.15;;;2.20;;
8777;SDS011;4425;50.872;4.712;2023-06-14T14:14:40;4.30;;;2.45;;
8777;SDS011;4425;50.872;4.712;2023-06-14T14:17:07;4.63;;;2.63;;
8777;SDS011;4425;50.872;4.712;2023-06-14T14:19:34;3.42;;;2.30;;
8777;SDS011;4425;50.872;4.712;2023-06-14T14:22:01;4.93;;;2.47;;
8777;SDS011;4425;50.872;4.712;2023-06-14T14:24:28;2.45;;;2.28;;
8777;SDS011;4425;50.872;4.712;2023-06-14T14:26:56;5.32;;;2.50;;
8777;SDS011;4425;50.872;4.712;2023-06-14T14:29:25;5.00;;;2.30;;
8777;SDS011;4425;50.872;4.712;2023-06-14T14:31:54;6.75;;;2.78;;
8777;SDS011;4425;50.872;4.712;2023-06-14T14:34:24;5.85;;;2.97;;
8777;SDS011;4425;50.872;4.712;2023-06-14T14:36:50;2.97;;;2.60;;
8777;SDS011;4425;50.872;4.712;2023-06-14T14:39:17;7.53;;;2.50;;
8777;SDS011;4425;50.872;4.712;2023-06-14T14:41:44;3.08;;;2.60;;
8777;SDS011;4425;50.872;4.712;2023-06-14T14:44:12;4.05;;;2.42;;
8777;SDS011;4425;50.872;4.712;2023-06-14T14:46:39;5.97;;;2.10;;
8777;SDS011;4425;50.872;4.712;2023-06-14T14:49:06;3.88;;;2.60;;
8777;SDS011;4425;50.872;4.712;2023-06-14T14:51:33;2.50;;;2.30;;
8777;SDS011;4425;50.872;4.712;2023-06-14T14:54:00;6.78;;;2.42;;
8777;SDS011;4425;50.872;4.712;2023-06-14T14:56:27;9.27;;;2.58;;
8777;SDS011;4425;50.872;4.712;2023-06-14T14:58:54;3.13;;;2.33;;
8777;SDS011;4425;50.872;4.712;2023-06-14T15:01:22;6.68;;;2.50;;
8777;SDS011;4425;50.872;4.712;2023-06-14T15:03:49;4.07;;;2.28;;
8777;SDS011;4425;50.872;4.712;2023-06-14T15:06:16;2.95;;;2.38;;
8777;SDS011;4425;50.872;4.712;2023-06-14T15:08:43;3.20;;;2.65;;
8777;SDS011;4425;50.872;4.712;2023-06-14T15:11:10;3.33;;;2.88;;
8777;SDS011;4425;50.872;4.712;2023-06-14T15:13:37;2.50;;;2.30;;
8777;SDS011;4425;50.872;4.712;2023-06-14T15:16:04;3.95;;;2.50;;
8777;SDS011;4425;50.872;4.712;2023-06-14T15:18:33;3.10;;;2.65;;
8777;SDS011;4425;50.872;4.712;2023-06-14T15:21:00;4.38;;;2.40;;
8777;SDS011;4425;50.872;4.712;2023-06-14T15:23:27;6.50;;;2.63;;